createdAt,value
2023-04-17T00:00:28.515Z,102364.38
2023-04-17T00:02:55.372Z,102362.53
2023-04-17T00:05:23.489Z,102365.25
2023-04-17T00:07:50.183Z,102360.16
2023-04-17T00:10:17.326Z,102357.63
2023-04-17T00:12:45.345Z,102368.53
2023-04-17T00:15:14.823Z,102362.44
2023-04-17T00:17:44.337Z,102371.78
2023-04-17T00:20:13.754Z,102369.91
2023-04-17T00:22:40.717Z,102369.50
2023-04-17T00:25:13.839Z,102367.78
2023-04-17T00:27:44.070Z,102372.59
2023-04-17T00:30:13.591Z,102373.00
2023-04-17T00:32:40.233Z,102363.78
2023-04-17T00:35:07.673Z,102369.72
2023-04-17T00:37:35.804Z,102362.91
2023-04-17T00:40:03.564Z,102368.28
2023-04-17T00:42:30.245Z,102373.91
2023-04-17T00:44:57.411Z,102365.69
2023-04-17T00:47:26.445Z,102369.78
2023-04-17T00:49:53.279Z,102367.66
2023-04-17T00:52:30.031Z,102374.31
2023-04-17T00:54:58.767Z,102376.41
2023-04-17T00:57:28.260Z,102378.22
2023-04-17T00:59:57.641Z,102373.00
2023-04-17T01:02:25.318Z,102376.09
2023-04-17T01:04:52.117Z,102380.88
2023-04-17T01:07:19.868Z,102374.19
2023-04-17T01:09:46.561Z,102373.25
2023-04-17T01:12:26.040Z,102377.88
2023-04-17T01:14:54.544Z,102379.13
2023-04-17T01:17:27.893Z,102370.50
2023-04-17T01:19:55.564Z,102373.31
2023-04-17T01:22:22.316Z,102379.22
2023-04-17T01:24:49.490Z,102369.00
2023-04-17T01:27:16.129Z,102375.63
2023-04-17T01:29:45.421Z,102377.88
2023-04-17T01:32:15.103Z,102370.88
2023-04-17T01:35:18.583Z,102380.34
2023-04-17T01:37:45.328Z,102382.31
2023-04-17T01:40:14.655Z,102379.50
2023-04-17T01:42:44.465Z,102368.97
2023-04-17T01:45:13.710Z,102377.22
2023-04-17T01:47:45.292Z,102378.63
2023-04-17T01:50:15.672Z,102375.50
2023-04-17T01:52:45.912Z,102374.94
2023-04-17T01:55:15.784Z,102385.13
2023-04-17T01:57:45.252Z,102383.53
2023-04-17T02:00:15.548Z,102380.16
2023-04-17T02:02:44.998Z,102384.22
2023-04-17T02:05:15.405Z,102383.50
2023-04-17T02:07:47.013Z,102388.97
2023-04-17T02:10:14.888Z,102389.13
2023-04-17T02:12:43.620Z,102385.00
2023-04-17T02:15:11.998Z,102380.03
2023-04-17T02:17:38.713Z,102387.09
2023-04-17T02:20:07.461Z,102391.22
2023-04-17T02:22:34.120Z,102378.75
2023-04-17T02:25:00.888Z,102393.25
2023-04-17T02:27:27.679Z,102384.34
2023-04-17T02:29:54.279Z,102381.06
2023-04-17T02:32:21.060Z,102387.97
2023-04-17T02:34:47.664Z,102396.06
2023-04-17T02:37:14.620Z,102386.63
2023-04-17T02:39:48.677Z,102388.31
2023-04-17T02:42:15.525Z,102379.84
2023-04-17T02:44:49.317Z,102384.78
2023-04-17T02:47:16.028Z,102382.84
2023-04-17T02:49:46.299Z,102390.34
2023-04-17T02:52:15.845Z,102387.06
2023-04-17T02:54:44.235Z,102378.44
2023-04-17T02:57:13.086Z,102377.59
2023-04-17T02:59:39.849Z,102391.22
2023-04-17T03:02:07.171Z,102382.75
2023-04-17T03:04:34.623Z,102389.53
2023-04-17T03:07:01.364Z,102371.75
2023-04-17T03:09:27.983Z,102385.69
2023-04-17T03:11:54.690Z,102381.16
2023-04-17T03:14:21.377Z,102383.44
2023-04-17T03:16:48.077Z,102382.16
2023-04-17T03:19:14.798Z,102385.94
2023-04-17T03:21:44.180Z,102381.09
2023-04-17T03:24:18.283Z,102380.19
2023-04-17T03:26:45.431Z,102383.47
2023-04-17T03:29:14.858Z,102395.34
2023-04-17T03:31:43.289Z,102395.44
2023-04-17T03:34:10.082Z,102392.91
2023-04-17T03:36:36.664Z,102391.75
2023-04-17T03:39:03.431Z,102401.50
2023-04-17T03:41:30.171Z,102404.88
2023-04-17T03:43:57.055Z,102400.50
2023-04-17T03:46:26.755Z,102395.00
2023-04-17T03:48:56.588Z,102395.84
2023-04-17T03:51:24.332Z,102401.56
2023-04-17T03:53:51.118Z,102400.44
2023-04-17T03:56:19.013Z,102403.09
2023-04-17T03:58:45.797Z,102409.19
2023-04-17T04:01:16.601Z,102414.00
2023-04-17T04:03:44.746Z,102411.56
2023-04-17T04:06:12.664Z,102410.00
2023-04-17T04:08:40.513Z,102415.63
2023-04-17T04:11:07.425Z,102406.19
2023-04-17T04:13:34.295Z,102414.38
2023-04-17T04:16:01.162Z,102415.63
2023-04-17T04:18:27.992Z,102417.84
2023-04-17T04:20:54.689Z,102407.91
2023-04-17T04:23:21.398Z,102423.16
2023-04-17T04:25:49.854Z,102425.72
2023-04-17T04:28:17.882Z,102432.25
2023-04-17T04:30:50.515Z,102429.56
2023-04-17T04:33:20.589Z,102442.22
2023-04-17T04:35:48.987Z,102434.00
2023-04-17T04:38:17.278Z,102440.84
2023-04-17T04:40:50.075Z,102437.41
2023-04-17T04:43:16.872Z,102430.72
2023-04-17T04:45:44.085Z,102431.94
2023-04-17T04:48:12.835Z,102432.78
2023-04-17T04:50:39.569Z,102454.56
2023-04-17T04:53:06.322Z,102457.41
2023-04-17T04:55:33.078Z,102456.34
2023-04-17T04:57:59.783Z,102460.78
2023-04-17T05:00:26.525Z,102463.13
2023-04-17T05:02:53.324Z,102468.03
2023-04-17T05:05:20.303Z,102471.00
2023-04-17T05:07:46.961Z,102459.94
2023-04-17T05:10:13.795Z,102468.38
2023-04-17T05:12:42.947Z,102467.50
2023-04-17T05:15:10.359Z,102484.78
2023-04-17T05:17:37.617Z,102487.34
2023-04-17T05:20:07.005Z,102487.63
2023-04-17T05:22:33.778Z,102489.19
2023-04-17T05:25:01.656Z,102494.31
2023-04-17T05:27:28.343Z,102483.00
2023-04-17T05:29:55.083Z,102486.25
2023-04-17T05:32:22.033Z,102495.25
2023-04-17T05:34:49.019Z,102496.06
2023-04-17T05:37:15.802Z,102475.66
2023-04-17T05:39:45.541Z,102490.44
2023-04-17T05:42:15.369Z,102493.56
2023-04-17T05:44:44.117Z,102498.94
2023-04-17T05:47:10.749Z,102498.59
2023-04-17T05:49:37.785Z,102494.31
2023-04-17T05:52:04.761Z,102493.13
2023-04-17T05:54:31.408Z,102480.88
2023-04-17T05:56:57.998Z,102493.97
2023-04-17T05:59:25.309Z,102485.41
2023-04-17T06:01:52.677Z,102492.28
2023-04-17T06:04:19.494Z,102492.94
2023-04-17T06:06:46.330Z,102492.91
2023-04-17T06:09:15.991Z,102498.75
2023-04-17T06:11:44.095Z,102501.28
2023-04-17T06:14:12.257Z,102491.34
2023-04-17T06:16:38.943Z,102506.94
2023-04-17T06:19:05.606Z,102505.38
2023-04-17T06:21:32.572Z,102509.63
2023-04-17T06:23:59.385Z,102509.06
2023-04-17T06:26:26.379Z,102512.81
2023-04-17T06:28:52.984Z,102510.78
2023-04-17T06:31:19.880Z,102515.00
2023-04-17T06:33:47.780Z,102508.00
2023-04-17T06:36:14.283Z,102513.78
2023-04-17T06:38:43.387Z,102521.06
2023-04-17T06:41:10.038Z,102512.78
2023-04-17T06:43:36.754Z,102516.97
2023-04-17T06:46:03.474Z,102517.56
2023-04-17T06:48:30.357Z,102523.19
2023-04-17T06:50:57.083Z,102504.53
2023-04-17T06:53:23.928Z,102513.72
2023-04-17T06:55:50.564Z,102514.44
2023-04-17T06:58:17.231Z,102523.06
2023-04-17T07:00:44.081Z,102529.72
2023-04-17T07:03:13.478Z,102526.66
2023-04-17T07:05:40.568Z,102529.81
2023-04-17T07:08:07.526Z,102528.78
2023-04-17T07:10:34.154Z,102527.94
2023-04-17T07:13:00.981Z,102537.78
2023-04-17T07:15:30.664Z,102539.09
2023-04-17T07:17:57.519Z,102528.63
2023-04-17T07:20:24.896Z,102530.34
2023-04-17T07:22:51.955Z,102540.44
2023-04-17T07:25:19.900Z,102538.84
2023-04-17T07:27:46.687Z,102544.91
2023-04-17T07:30:14.334Z,102552.06
2023-04-17T07:32:43.161Z,102559.97
2023-04-17T07:35:10.099Z,102556.78
2023-04-17T07:37:37.158Z,102556.97
2023-04-17T07:40:05.703Z,102561.47
2023-04-17T07:42:32.412Z,102554.06
2023-04-17T07:44:59.067Z,102554.47
2023-04-17T07:47:25.829Z,102555.63
2023-04-17T07:49:52.581Z,102561.81
2023-04-17T07:52:19.265Z,102566.47
2023-04-17T07:54:46.035Z,102571.03
2023-04-17T07:57:15.628Z,102567.47
2023-04-17T07:59:44.873Z,102566.00
2023-04-17T08:02:12.219Z,102564.38
2023-04-17T08:04:40.494Z,102575.97
2023-04-17T08:07:10.659Z,102569.47
2023-04-17T08:09:37.551Z,102577.41
2023-04-17T08:12:04.297Z,102577.59
2023-04-17T08:14:31.220Z,102555.94
2023-04-17T08:16:58.330Z,102569.75
2023-04-17T08:19:25.112Z,102578.19
2023-04-17T08:21:51.913Z,102577.53
2023-04-17T08:24:19.965Z,102563.84
2023-04-17T08:26:47.714Z,102573.25
2023-04-17T08:29:14.885Z,102580.56
2023-04-17T08:31:44.105Z,102578.41
2023-04-17T08:34:15.311Z,102586.88
2023-04-17T08:36:46.292Z,102578.97
2023-04-17T08:39:16.710Z,102589.50
2023-04-17T08:41:52.001Z,102587.84
2023-04-17T08:44:21.329Z,102591.34
2023-04-17T08:46:49.520Z,102603.09
2023-04-17T08:49:16.465Z,102606.38
2023-04-17T08:51:44.263Z,102599.34
2023-04-17T08:54:15.041Z,102608.03
2023-04-17T08:56:42.757Z,102611.19
2023-04-17T08:59:09.583Z,102606.03
2023-04-17T09:01:37.721Z,102619.56
2023-04-17T09:04:04.676Z,102610.81
2023-04-17T09:06:50.225Z,102614.38
2023-04-17T09:09:17.726Z,102621.13
2023-04-17T09:11:44.615Z,102609.34
2023-04-17T09:14:30.164Z,102614.13
2023-04-17T09:16:57.999Z,102623.47
2023-04-17T09:19:24.685Z,102622.38
2023-04-17T09:21:54.019Z,102617.53
2023-04-17T09:24:48.282Z,102625.00
2023-04-17T09:27:24.084Z,102640.41
2023-04-17T09:30:02.617Z,102638.00
2023-04-17T09:32:31.784Z,102638.44
2023-04-17T09:35:00.849Z,102631.69
2023-04-17T09:37:53.814Z,102633.91
2023-04-17T09:40:22.785Z,102635.50
2023-04-17T09:42:57.492Z,102639.41
2023-04-17T09:45:25.226Z,102639.25
2023-04-17T09:48:01.721Z,102639.78
2023-04-17T09:50:28.959Z,102643.94
2023-04-17T09:52:57.011Z,102652.63
2023-04-17T09:55:26.661Z,102650.47
2023-04-17T09:57:54.747Z,102645.78
2023-04-17T10:00:23.819Z,102636.97
2023-04-17T10:02:52.361Z,102646.41
2023-04-17T10:05:20.479Z,102647.06
2023-04-17T10:07:47.748Z,102635.31
2023-04-17T10:10:26.558Z,102647.78
2023-04-17T10:12:56.371Z,102634.91
2023-04-17T10:15:25.762Z,102637.47
2023-04-17T10:17:56.500Z,102635.31
2023-04-17T10:20:23.210Z,102642.84
2023-04-17T10:22:56.316Z,102646.53
2023-04-17T10:25:29.668Z,102632.63
2023-04-17T10:28:00.553Z,102649.91
2023-04-17T10:30:49.025Z,102641.28
2023-04-17T10:33:15.850Z,102636.22
2023-04-17T10:35:46.808Z,102643.28
2023-04-17T10:38:13.557Z,102639.19
2023-04-17T10:40:44.620Z,102647.72
2023-04-17T10:43:20.496Z,102649.00
2023-04-17T10:45:57.640Z,102656.78
2023-04-17T10:48:38.943Z,102655.50
2023-04-17T10:51:29.821Z,102652.31
2023-04-17T10:53:57.289Z,102655.97
2023-04-17T10:56:27.168Z,102650.59
2023-04-17T10:59:03.038Z,102650.53
2023-04-17T11:01:47.950Z,102656.38
2023-04-17T11:04:23.095Z,102653.81
2023-04-17T11:06:52.625Z,102635.28
2023-04-17T11:09:21.125Z,102652.31
2023-04-17T11:11:47.730Z,102647.56
2023-04-17T11:14:19.878Z,102660.88
2023-04-17T11:16:48.235Z,102664.06
2023-04-17T11:19:19.262Z,102667.91
2023-04-17T11:21:48.298Z,102671.41
2023-04-17T11:24:28.919Z,102666.53
2023-04-17T11:26:59.811Z,102673.97
2023-04-17T11:29:27.196Z,102675.06
2023-04-17T11:31:55.902Z,102668.47
2023-04-17T11:34:23.042Z,102672.66
2023-04-17T11:36:58.111Z,102666.94
2023-04-17T11:39:29.836Z,102673.34
2023-04-17T11:41:59.546Z,102671.16
2023-04-17T11:44:26.294Z,102664.72
2023-04-17T11:46:55.183Z,102664.44
2023-04-17T11:49:28.885Z,102677.50
2023-04-17T11:51:58.898Z,102684.56
2023-04-17T11:54:29.458Z,102691.66
2023-04-17T11:57:03.305Z,102694.84
2023-04-17T11:59:37.973Z,102680.34
2023-04-17T12:02:07.351Z,102693.22
2023-04-17T12:04:36.406Z,102690.50
2023-04-17T12:07:04.565Z,102682.97
2023-04-17T12:09:32.737Z,102692.63
2023-04-17T12:12:01.955Z,102688.97
2023-04-17T12:14:28.746Z,102682.91
2023-04-17T12:16:55.387Z,102690.47
2023-04-17T12:19:22.113Z,102684.22
2023-04-17T12:21:48.721Z,102685.78
2023-04-17T12:24:18.188Z,102698.13
2023-04-17T12:26:49.195Z,102699.81
2023-04-17T12:29:16.595Z,102705.25
2023-04-17T12:31:45.225Z,102703.75
2023-04-17T12:34:12.814Z,102698.00
2023-04-17T12:36:42.621Z,102697.00
2023-04-17T12:39:09.238Z,102674.28
2023-04-17T12:41:36.219Z,102706.69
2023-04-17T12:44:03.656Z,102710.19
2023-04-17T12:46:30.673Z,102709.34
2023-04-17T12:48:59.307Z,102707.50
2023-04-17T12:51:28.029Z,102704.19
2023-04-17T12:53:55.821Z,102691.16
2023-04-17T12:56:22.664Z,102700.22
2023-04-17T12:58:49.335Z,102715.13
2023-04-17T13:01:16.232Z,102698.44
2023-04-17T13:03:46.357Z,102705.91
2023-04-17T13:06:17.101Z,102701.28
2023-04-17T13:08:45.174Z,102709.34
2023-04-17T13:11:12.954Z,102705.81
2023-04-17T13:13:39.796Z,102707.34
2023-04-17T13:16:06.736Z,102701.94
2023-04-17T13:18:33.382Z,102711.84
2023-04-17T13:21:00.016Z,102706.13
2023-04-17T13:23:27.767Z,102707.09
2023-04-17T13:25:54.637Z,102706.84
2023-04-17T13:28:21.184Z,102721.00
2023-04-17T13:30:47.845Z,102713.19
2023-04-17T13:33:14.580Z,102714.16
2023-04-17T13:35:44.523Z,102718.19
2023-04-17T13:38:13.600Z,102716.56
2023-04-17T13:40:43.589Z,102714.03
2023-04-17T13:43:10.719Z,102718.25
2023-04-17T13:45:39.826Z,102718.88
2023-04-17T13:48:15.673Z,102706.47
2023-04-17T13:50:45.388Z,102710.25
2023-04-17T13:53:16.617Z,102703.94
2023-04-17T13:55:45.001Z,102703.41
2023-04-17T13:58:14.773Z,102700.66
2023-04-17T14:00:43.950Z,102707.19
2023-04-17T14:03:16.192Z,102705.97
2023-04-17T14:05:44.420Z,102706.84
2023-04-17T14:08:12.317Z,102705.75
2023-04-17T14:10:38.959Z,102707.84
2023-04-17T14:13:07.183Z,102696.84
2023-04-17T14:15:34.139Z,102696.28
2023-04-17T14:18:01.404Z,102692.13
2023-04-17T14:20:28.625Z,102705.84
2023-04-17T14:22:56.599Z,102695.16
2023-04-17T14:25:23.657Z,102713.28
2023-04-17T14:27:52.586Z,102692.97
2023-04-17T14:30:20.149Z,102699.72
2023-04-17T14:32:47.172Z,102697.59
2023-04-17T14:35:15.294Z,102704.84
2023-04-17T14:37:43.682Z,102704.53
2023-04-17T14:40:13.127Z,102702.25
2023-04-17T14:42:51.295Z,102702.28
2023-04-17T14:45:23.108Z,102705.84
2023-04-17T14:47:51.317Z,102704.41
2023-04-17T14:50:19.337Z,102688.63
2023-04-17T14:52:46.086Z,102690.47
2023-04-17T14:55:16.055Z,102699.47
2023-04-17T14:57:46.848Z,102701.34
2023-04-17T15:00:14.231Z,102699.28
2023-04-17T15:02:44.593Z,102695.91
2023-04-17T15:05:13.743Z,102699.81
2023-04-17T15:07:43.049Z,102695.91
2023-04-17T15:10:12.553Z,102705.47
2023-04-17T15:12:41.283Z,102694.13
2023-04-17T15:15:09.933Z,102702.72
2023-04-17T15:17:38.287Z,102704.78
2023-04-17T15:20:06.086Z,102705.31
2023-04-17T15:22:32.966Z,102705.41
2023-04-17T15:24:59.733Z,102704.47
2023-04-17T15:27:26.504Z,102707.66
2023-04-17T15:29:53.125Z,102704.63
2023-04-17T15:32:21.294Z,102719.38
2023-04-17T15:34:49.519Z,102724.28
2023-04-17T15:37:18.969Z,102721.81
2023-04-17T15:39:46.637Z,102722.16
2023-04-17T15:42:17.257Z,102719.03
2023-04-17T15:44:45.355Z,102723.22
2023-04-17T15:47:14.662Z,102725.22
2023-04-17T15:49:43.220Z,102714.09
2023-04-17T15:52:10.356Z,102727.56
2023-04-17T15:54:37.081Z,102720.75
2023-04-17T15:57:03.760Z,102729.09
2023-04-17T15:59:33.635Z,102720.00
2023-04-17T16:02:00.675Z,102730.50
2023-04-17T16:04:27.597Z,102721.94
2023-04-17T16:06:55.065Z,102725.38
2023-04-17T16:09:24.478Z,102721.81
2023-04-17T16:11:51.519Z,102731.78
2023-04-17T16:14:18.208Z,102731.63
2023-04-17T16:16:46.406Z,102730.28
2023-04-17T16:19:15.788Z,102740.75
2023-04-17T16:21:44.467Z,102726.91
2023-04-17T16:24:13.373Z,102731.25
2023-04-17T16:26:43.576Z,102732.34
2023-04-17T16:29:14.461Z,102745.56
2023-04-17T16:31:42.859Z,102739.75
2023-04-17T16:34:09.988Z,102749.44
2023-04-17T16:36:37.959Z,102744.44
2023-04-17T16:39:05.169Z,102748.16
2023-04-17T16:41:32.984Z,102743.59
2023-04-17T16:44:02.050Z,102741.38
2023-04-17T16:46:40.276Z,102745.81
2023-04-17T16:49:17.686Z,102742.84
2023-04-17T16:51:45.441Z,102756.72
2023-04-17T16:54:13.801Z,102756.44
2023-04-17T16:56:47.520Z,102750.75
2023-04-17T16:59:14.346Z,102751.25
2023-04-17T17:01:43.007Z,102749.69
2023-04-17T17:04:13.292Z,102762.56
2023-04-17T17:06:40.071Z,102752.03
2023-04-17T17:09:06.714Z,102747.06
2023-04-17T17:11:33.571Z,102742.22
2023-04-17T17:14:01.699Z,102762.59
2023-04-17T17:16:28.850Z,102765.75
2023-04-17T17:18:55.608Z,102761.44
2023-04-17T17:21:23.302Z,102760.25
2023-04-17T17:23:49.916Z,102757.19
2023-04-17T17:26:17.429Z,102758.41
2023-04-17T17:28:50.859Z,102765.47
2023-04-17T17:31:17.888Z,102769.31
2023-04-17T17:33:44.790Z,102775.91
2023-04-17T17:36:16.096Z,102766.19
2023-04-17T17:38:45.646Z,102775.09
2023-04-17T17:41:14.313Z,102772.78
2023-04-17T17:43:40.915Z,102780.03
2023-04-17T17:46:10.420Z,102785.50
2023-04-17T17:48:39.625Z,102788.34
2023-04-17T17:51:06.280Z,102795.13
2023-04-17T17:53:33.091Z,102780.75
2023-04-17T17:55:59.770Z,102801.28
2023-04-17T17:58:27.433Z,102804.00
2023-04-17T18:00:54.336Z,102803.94
2023-04-17T18:03:21.314Z,102798.44
2023-04-17T18:05:48.155Z,102806.13
2023-04-17T18:08:14.953Z,102805.16
2023-04-17T18:10:43.430Z,102809.97
2023-04-17T18:13:09.821Z,102808.28
2023-04-17T18:15:36.761Z,102806.59
2023-04-17T18:18:03.675Z,102818.09
2023-04-17T18:20:30.493Z,102815.28
2023-04-17T18:22:57.696Z,102813.84
2023-04-17T18:25:24.374Z,102809.59
2023-04-17T18:27:51.036Z,102802.50
2023-04-17T18:30:18.689Z,102804.50
2023-04-17T18:32:45.384Z,102810.47
2023-04-17T18:35:13.302Z,102815.97
2023-04-17T18:37:39.941Z,102814.00
2023-04-17T18:40:07.969Z,102818.41
2023-04-17T18:42:35.677Z,102826.50
2023-04-17T18:45:03.068Z,102831.19
2023-04-17T18:47:30.073Z,102831.34
2023-04-17T18:49:56.773Z,102831.59
2023-04-17T18:52:23.619Z,102834.31
2023-04-17T18:54:51.237Z,102836.56
2023-04-17T18:57:17.888Z,102833.72
2023-04-17T18:59:45.961Z,102824.31
2023-04-17T19:02:16.075Z,102832.97
2023-04-17T19:04:43.953Z,102832.53
2023-04-17T19:07:13.622Z,102839.22
2023-04-17T19:09:40.345Z,102831.53
2023-04-17T19:12:07.090Z,102841.06
2023-04-17T19:14:33.659Z,102825.44
2023-04-17T19:17:00.302Z,102842.16
2023-04-17T19:19:26.926Z,102834.50
2023-04-17T19:21:53.652Z,102819.56
2023-04-17T19:24:20.500Z,102826.84
2023-04-17T19:26:47.264Z,102829.38
2023-04-17T19:29:17.048Z,102822.13
2023-04-17T19:31:44.952Z,102825.69
2023-04-17T19:34:13.794Z,102826.00
2023-04-17T19:36:40.907Z,102817.75
2023-04-17T19:39:08.363Z,102827.13
2023-04-17T19:41:35.018Z,102828.56
2023-04-17T19:44:01.660Z,102825.59
2023-04-17T19:46:29.343Z,102815.22
2023-04-17T19:48:56.122Z,102824.59
2023-04-17T19:51:23.056Z,102832.81
2023-04-17T19:53:49.778Z,102830.97
2023-04-17T19:56:16.428Z,102838.66
2023-04-17T19:58:46.697Z,102821.34
2023-04-17T20:01:15.182Z,102821.19
2023-04-17T20:03:44.174Z,102822.88
2023-04-17T20:06:11.264Z,102826.84
2023-04-17T20:08:38.188Z,102826.13
2023-04-17T20:11:06.516Z,102834.50
2023-04-17T20:13:33.134Z,102835.38
2023-04-17T20:15:59.896Z,102838.78
2023-04-17T20:18:27.278Z,102845.59
2023-04-17T20:20:53.938Z,102842.06
2023-04-17T20:23:20.656Z,102846.44
2023-04-17T20:25:47.324Z,102845.00
2023-04-17T20:28:13.899Z,102858.09
2023-04-17T20:30:43.137Z,102852.41
2023-04-17T20:33:09.811Z,102861.44
2023-04-17T20:35:36.557Z,102860.75
2023-04-17T20:38:03.185Z,102861.28
2023-04-17T20:40:29.882Z,102860.16
2023-04-17T20:42:56.541Z,102855.44
2023-04-17T20:45:23.311Z,102866.03
2023-04-17T20:50:20.325Z,102861.28
2023-04-17T20:52:47.215Z,102863.50
2023-04-17T20:55:15.369Z,102864.53
2023-04-17T20:57:42.358Z,102865.88
2023-04-17T21:00:09.718Z,102862.53
2023-04-17T21:02:36.481Z,102870.41
2023-04-17T21:05:03.671Z,102870.78
2023-04-17T21:07:30.935Z,102868.50
2023-04-17T21:09:57.636Z,102867.91
2023-04-17T21:12:24.223Z,102872.22
2023-04-17T21:14:50.837Z,102873.66
2023-04-17T21:17:17.456Z,102870.88
2023-04-17T21:19:44.633Z,102881.19
2023-04-17T21:22:13.571Z,102876.81
2023-04-17T21:24:40.244Z,102882.91
2023-04-17T21:27:06.990Z,102885.63
2023-04-17T21:29:33.589Z,102876.00
2023-04-17T21:32:00.574Z,102872.22
2023-04-17T21:34:27.316Z,102874.50
2023-04-17T21:36:54.568Z,102884.66
2023-04-17T21:39:21.961Z,102881.47
2023-04-17T21:41:48.737Z,102886.34
2023-04-17T21:44:15.542Z,102887.44
2023-04-17T21:46:47.852Z,102891.81
2023-04-17T21:49:14.492Z,102893.78
2023-04-17T21:51:42.474Z,102893.28
2023-04-17T21:54:10.166Z,102889.75
2023-04-17T21:56:36.989Z,102891.69
2023-04-17T21:59:03.853Z,102889.50
2023-04-17T22:01:30.541Z,102892.75
2023-04-17T22:03:57.412Z,102896.31
2023-04-17T22:06:25.105Z,102892.06
2023-04-17T22:08:51.765Z,102897.56
2023-04-17T22:11:18.430Z,102904.38
2023-04-17T22:13:47.092Z,102894.88
2023-04-17T22:16:14.037Z,102904.13
2023-04-17T22:18:40.828Z,102906.06
2023-04-17T22:21:07.672Z,102905.34
2023-04-17T22:23:34.309Z,102908.53
2023-04-17T22:26:01.016Z,102905.22
2023-04-17T22:28:31.351Z,102913.78
2023-04-17T22:30:59.073Z,102904.28
2023-04-17T22:33:26.262Z,102910.25
2023-04-17T22:35:53.277Z,102909.56
2023-04-17T22:38:21.211Z,102910.53
2023-04-17T22:40:48.160Z,102917.50
2023-04-17T22:43:15.432Z,102920.31
2023-04-17T22:45:44.790Z,102908.56
2023-04-17T22:48:13.499Z,102904.69
2023-04-17T22:50:40.006Z,102904.19
2023-04-17T22:53:07.765Z,102909.69
2023-04-17T22:55:34.462Z,102903.09
2023-04-17T22:58:02.207Z,102902.72
2023-04-17T23:00:30.270Z,102901.75
2023-04-17T23:02:57.034Z,102902.72
2023-04-17T23:05:23.866Z,102906.84
2023-04-17T23:07:51.713Z,102905.84
2023-04-17T23:10:20.673Z,102907.56
2023-04-17T23:12:47.296Z,102902.44
2023-04-17T23:15:14.077Z,102900.47
2023-04-17T23:17:40.795Z,102900.69
2023-04-17T23:20:07.868Z,102907.53
2023-04-17T23:22:35.755Z,102906.75
2023-04-17T23:25:02.928Z,102902.34
2023-04-17T23:27:30.914Z,102902.94
2023-04-17T23:29:59.362Z,102901.06
2023-04-17T23:32:26.119Z,102891.66
2023-04-17T23:34:52.837Z,102895.19
2023-04-17T23:37:20.606Z,102900.91
2023-04-17T23:39:48.286Z,102897.59
2023-04-17T23:42:15.990Z,102899.56
2023-04-17T23:44:45.107Z,102871.25
2023-04-17T23:47:14.458Z,102892.06
2023-04-17T23:49:41.691Z,102872.84
2023-04-17T23:52:09.043Z,102885.94
2023-04-17T23:54:35.603Z,102887.97
2023-04-17T23:57:04.175Z,102883.97
2023-04-17T23:59:30.853Z,102892.06
